Ruskin, Florida
Current Conditions -  °F | °C
As of 5:58 AM on Tuesday 21 Oct 2014 (Local Time) from KMCF Reporting Station
Clear Clear  
Wind Chill: 68°   Ceiling: Unl
Heat Index: 68°   Visibility: 10mi
Dew Point: 66°   Wind: 2mph
Humidity: 92%   Direction: 100°E
Pressure: 29.93"   Gusts: NA
Location:  27.72°N, 82.43°W
Report Text: KMCF 210958Z AUTO 10002KT 10SM CLR 20/19 A2993 RMK AO2 SLP138 T02020189
Loading
Personal Weather Stations






























Interactive Weather Map
Tropical Storm Tracking
New forecast layout! Learn more

10-Day Weather Forecast

Advertisements
Track Severe Weather on mobile